Time,TemperatureF,DewpointF,PressureIn,WindDirection,WindDirectionDegrees,WindSpeedMPH,WindSpeedGustMPH,Humidity,HourlyPrecipIn,Conditions,Clouds,dailyrainin,SoftwareType,DateUTC
2013-06-23 00:01:00,70.1,63.9,30.21,WSW,253,0.0,40.1,81,14.69,,,0.00,VWS V13.01,2013-06-23 04:01:00,
2013-06-23 00:06:00,69.8,63.6,30.21,West,263,0.9,40.1,81,14.69,,,0.00,VWS V13.01,2013-06-23 04:06:00,
2013-06-23 00:11:00,69.9,63.8,30.21,West,259,0.0,40.1,81,14.69,,,0.00,VWS V13.01,2013-06-23 04:11:00,
2013-06-23 00:16:00,69.5,63.5,30.21,West,259,0.0,40.1,81,14.69,,,0.00,VWS V13.01,2013-06-23 04:16:00,
2013-06-23 00:21:00,69.8,63.8,30.22,WSW,253,0.0,40.1,81,14.69,,,0.00,VWS V13.01,2013-06-23 04:21:00,
2013-06-23 00:26:00,69.3,63.5,30.22,West,259,0.0,40.1,82,14.69,,,0.00,VWS V13.01,2013-06-23 04:26:00,
2013-06-23 00:31:00,69.5,63.8,30.22,West,259,0.0,40.1,82,14.69,,,0.00,VWS V13.01,2013-06-23 04:31:00,
2013-06-23 00:36:00,69.4,63.7,30.22,West,259,0.0,40.1,82,14.69,,,0.00,VWS V13.01,2013-06-23 04:36:00,
2013-06-23 00:41:00,69.3,63.9,30.22,West,259,0.0,40.1,83,14.69,,,0.00,VWS V13.01,2013-06-23 04:41:00,
2013-06-23 00:46:00,69.4,64.1,30.22,West,259,0.0,40.1,83,14.69,,,0.00,VWS V13.01,2013-06-23 04:46:00,
2013-06-23 00:51:00,69.1,63.9,30.23,West,259,0.0,40.1,84,14.69,,,0.00,VWS V13.01,2013-06-23 04:51:00,
2013-06-23 00:56:00,69.0,64.0,30.23,West,259,0.0,40.1,84,14.69,,,0.00,VWS V13.01,2013-06-23 04:56:00,
2013-06-23 01:00:00,74.0,74.0,30.12,WNW,283,0.0,40.1,100,14.77,,,0.00,VWS V13.01,2013-06-23 05:00:00,
2013-06-23 01:01:00,68.7,64.0,30.23,West,259,0.0,40.1,85,14.69,,,0.00,VWS V13.01,2013-06-23 05:01:00,
2013-06-23 01:06:00,68.5,64.0,30.22,West,259,0.0,40.1,86,14.69,,,0.00,VWS V13.01,2013-06-23 05:06:00,
2013-06-23 01:11:00,68.2,63.8,30.22,West,259,0.0,40.1,86,14.69,,,0.00,VWS V13.01,2013-06-23 05:11:00,
2013-06-23 01:16:00,68.0,63.9,30.22,SW,235,0.0,40.1,87,14.69,,,0.00,VWS V13.01,2013-06-23 05:16:00,
2013-06-23 01:21:00,68.0,64.0,30.22,SW,235,0.0,40.1,87,14.69,,,0.00,VWS V13.01,2013-06-23 05:21:00,
2013-06-23 01:26:00,68.1,64.1,30.22,SW,235,0.0,40.1,87,14.69,,,0.00,VWS V13.01,2013-06-23 05:26:00,
2013-06-23 01:31:00,68.2,64.2,30.22,SW,235,0.0,40.1,87,14.69,,,0.00,VWS V13.01,2013-06-23 05:31:00,
2013-06-23 01:36:00,68.1,64.1,30.22,SW,218,0.0,40.1,87,14.69,,,0.00,VWS V13.01,2013-06-23 05:36:00,
2013-06-23 01:40:00,68.0,64.1,30.22,SW,218,0.0,40.1,87,14.69,,,0.00,VWS V13.01,2013-06-23 05:40:00,
2013-06-23 01:45:00,68.0,64.1,30.22,SW,218,0.0,40.1,87,14.69,,,0.00,VWS V13.01,2013-06-23 05:45:00,
2013-06-23 01:50:00,67.9,64.1,30.22,SW,218,0.0,40.1,88,14.69,,,0.00,VWS V13.01,2013-06-23 05:50:00,
2013-06-23 01:55:00,67.5,63.8,30.22,West,276,0.0,40.1,88,14.69,,,0.00,VWS V13.01,2013-06-23 05:55:00,
2013-06-23 02:00:00,67.8,64.0,30.21,WNW,300,0.0,40.1,88,14.69,,,0.00,VWS V13.01,2013-06-23 06:00:00,
2013-06-23 02:01:00,67.3,63.5,30.21,WNW,300,0.0,40.1,88,14.69,,,0.00,VWS V13.01,2013-06-23 06:01:00,
2013-06-23 02:06:00,67.8,64.0,30.22,WNW,300,0.0,40.1,88,14.69,,,0.00,VWS V13.01,2013-06-23 06:06:00,
2013-06-23 02:11:00,67.8,64.0,30.22,WNW,300,0.0,40.1,88,14.69,,,0.00,VWS V13.01,2013-06-23 06:11:00,
2013-06-23 02:16:00,67.7,64.0,30.22,WNW,300,0.0,40.1,88,14.69,,,0.00,VWS V13.01,2013-06-23 06:16:00,
2013-06-23 02:21:00,67.8,64.2,30.22,WNW,300,0.0,40.1,88,14.69,,,0.00,VWS V13.01,2013-06-23 06:21:00,
2013-06-23 02:26:00,67.4,64.0,30.22,SSW,200,0.0,40.1,89,14.69,,,0.00,VWS V13.01,2013-06-23 06:26:00,
2013-06-23 02:31:00,67.3,64.1,30.22,SSW,212,0.0,40.1,89,14.69,,,0.00,VWS V13.01,2013-06-23 06:31:00,
2013-06-23 02:36:00,67.3,64.2,30.21,SSW,212,0.0,40.1,90,14.69,,,0.00,VWS V13.01,2013-06-23 06:36:00,
2013-06-23 02:41:00,67.3,64.2,30.21,SSW,212,0.0,40.1,90,14.69,,,0.00,VWS V13.01,2013-06-23 06:41:00,
2013-06-23 02:46:00,67.3,64.3,30.21,WSW,253,1.4,40.1,90,14.69,,,0.00,VWS V13.01,2013-06-23 06:46:00,
2013-06-23 02:51:00,67.3,64.4,30.21,West,259,0.0,40.1,90,14.69,,,0.00,VWS V13.01,2013-06-23 06:51:00,
2013-06-23 02:56:00,67.0,64.3,30.21,West,259,0.0,40.1,91,14.69,,,0.00,VWS V13.01,2013-06-23 06:56:00,
2013-06-23 03:01:00,67.0,64.3,30.20,West,259,0.0,40.1,91,14.69,,,0.00,VWS V13.01,2013-06-23 07:01:00,
2013-06-23 03:06:00,67.1,64.6,30.20,West,264,0.0,40.1,92,14.69,,,0.00,VWS V13.01,2013-06-23 07:06:00,
2013-06-23 03:11:00,67.2,64.7,30.20,West,264,0.0,40.1,92,14.69,,,0.00,VWS V13.01,2013-06-23 07:11:00,
2013-06-23 03:16:00,67.2,64.8,30.20,West,264,0.0,40.1,92,14.69,,,0.00,VWS V13.01,2013-06-23 07:16:00,
2013-06-23 03:21:00,67.3,65.1,30.20,West,264,0.0,40.1,92,14.69,,,0.00,VWS V13.01,2013-06-23 07:21:00,
2013-06-23 03:26:00,67.0,64.9,30.20,West,267,1.2,40.1,93,14.69,,,0.00,VWS V13.01,2013-06-23 07:26:00,
2013-06-23 03:30:00,67.0,65.0,30.20,WSW,243,1.1,40.1,93,14.69,,,0.00,VWS V13.01,2013-06-23 07:30:00,
2013-06-23 03:35:00,66.8,64.9,30.20,WSW,253,0.0,40.1,94,14.69,,,0.00,VWS V13.01,2013-06-23 07:35:00,
2013-06-23 03:40:00,67.1,65.3,30.20,WSW,242,0.0,40.1,94,14.69,,,0.00,VWS V13.01,2013-06-23 07:40:00,
2013-06-23 03:45:00,66.9,65.1,30.20,WSW,252,0.0,40.1,94,14.69,,,0.00,VWS V13.01,2013-06-23 07:45:00,
2013-06-23 03:50:00,67.1,65.3,30.20,West,271,2.2,40.1,94,14.69,,,0.00,VWS V13.01,2013-06-23 07:50:00,
2013-06-23 03:55:00,67.0,65.3,30.20,South,188,0.0,40.1,94,14.69,,,0.00,VWS V13.01,2013-06-23 07:55:00,
2013-06-23 04:00:00,67.1,65.4,30.20,South,183,0.0,40.1,94,14.69,,,0.00,VWS V13.01,2013-06-23 08:00:00,
2013-06-23 04:05:00,66.8,65.2,30.20,West,280,1.7,40.1,95,14.69,,,0.00,VWS V13.01,2013-06-23 08:05:00,
2013-06-23 04:10:00,66.9,65.4,30.20,WSW,243,3.1,40.1,95,14.69,,,0.00,VWS V13.01,2013-06-23 08:10:00,
2013-06-23 04:15:00,66.6,65.1,30.20,WNW,290,1.4,40.1,95,14.69,,,0.00,VWS V13.01,2013-06-23 08:15:00,
2013-06-23 04:20:00,66.7,65.3,30.20,WNW,291,0.0,40.1,95,14.69,,,0.00,VWS V13.01,2013-06-23 08:20:00,
2013-06-23 04:25:00,66.7,65.3,30.20,SW,236,1.7,40.1,95,14.69,,,0.00,VWS V13.01,2013-06-23 08:25:00,
2013-06-23 04:30:00,66.9,65.5,30.20,West,260,1.3,40.1,95,14.69,,,0.00,VWS V13.01,2013-06-23 08:30:00,
2013-06-23 04:35:00,66.5,65.2,30.20,WNW,297,1.1,40.1,95,14.69,,,0.00,VWS V13.01,2013-06-23 08:35:00,
2013-06-23 04:40:00,66.5,65.2,30.20,SSW,195,0.0,40.1,96,14.69,,,0.00,VWS V13.01,2013-06-23 08:40:00,
2013-06-23 04:45:00,66.4,65.1,30.20,WNW,297,0.0,40.1,96,14.69,,,0.00,VWS V13.01,2013-06-23 08:45:00,
2013-06-23 04:50:00,66.4,65.1,30.20,SW,233,0.0,40.1,96,14.69,,,0.00,VWS V13.01,2013-06-23 08:50:00,
2013-06-23 04:55:00,66.7,65.5,30.20,WSW,253,0.0,40.1,96,14.69,,,0.00,VWS V13.01,2013-06-23 08:55:00,
2013-06-23 05:00:00,66.6,65.4,30.20,WNW,294,1.9,40.1,96,14.69,,,0.00,VWS V13.01,2013-06-23 09:00:00,
2013-06-23 05:05:00,66.8,65.6,30.20,WSW,242,0.0,40.1,96,14.69,,,0.00,VWS V13.01,2013-06-23 09:05:00,
2013-06-23 05:10:00,66.6,65.5,30.20,West,277,0.0,40.1,96,14.69,,,0.00,VWS V13.01,2013-06-23 09:10:00,
2013-06-23 05:15:00,66.8,65.7,30.21,SW,217,0.0,40.1,96,14.69,,,0.00,VWS V13.01,2013-06-23 09:15:00,
2013-06-23 05:20:00,66.7,65.6,30.21,WSW,257,2.6,40.1,96,14.69,,,0.00,VWS V13.01,2013-06-23 09:20:00,
2013-06-23 05:25:00,66.3,65.2,30.21,West,263,0.0,40.1,96,14.69,,,0.00,VWS V13.01,2013-06-23 09:25:00,
2013-06-23 05:30:00,66.6,65.5,30.21,West,273,0.0,40.1,96,14.69,,,0.00,VWS V13.01,2013-06-23 09:30:00,
2013-06-23 05:35:00,66.2,65.2,30.21,WNW,297,0.0,40.1,96,14.69,,,0.00,VWS V13.01,2013-06-23 09:35:00,
2013-06-23 05:40:00,66.2,65.2,30.22,NW,304,0.0,40.1,96,14.69,,,0.00,VWS V13.01,2013-06-23 09:40:00,
2013-06-23 05:45:00,66.1,65.1,30.22,NW,304,0.0,40.1,96,14.69,,,0.00,VWS V13.01,2013-06-23 09:45:00,
2013-06-23 05:50:00,66.2,65.2,30.22,West,267,0.0,40.1,97,14.69,,,0.00,VWS V13.01,2013-06-23 09:50:00,
2013-06-23 05:55:00,66.2,65.2,30.22,West,273,0.0,40.1,97,14.69,,,0.00,VWS V13.01,2013-06-23 09:55:00,
2013-06-23 06:00:00,66.3,65.3,30.22,West,267,0.0,40.1,97,14.69,,,0.00,VWS V13.01,2013-06-23 10:00:00,
2013-06-23 06:05:00,66.6,65.6,30.22,West,278,0.0,40.1,97,14.69,,,0.00,VWS V13.01,2013-06-23 10:05:00,
2013-06-23 06:10:00,66.7,65.8,30.22,West,269,2.4,40.1,97,14.69,,,0.00,VWS V13.01,2013-06-23 10:10:00,
2013-06-23 06:15:00,66.6,65.6,30.22,WSW,246,0.0,40.1,97,14.69,,,0.00,VWS V13.01,2013-06-23 10:15:00,
2013-06-23 06:20:00,67.4,66.4,30.22,NW,309,1.6,40.1,97,14.69,,,0.00,VWS V13.01,2013-06-23 10:20:00,
2013-06-23 06:25:00,67.9,66.8,30.22,WNW,294,0.0,40.1,96,14.69,,,0.00,VWS V13.01,2013-06-23 10:25:00,
2013-06-23 06:30:00,68.2,67.1,30.22,SW,219,0.0,40.1,96,14.69,,,0.00,VWS V13.01,2013-06-23 10:30:00,
2013-06-23 06:35:00,68.4,67.2,30.22,West,273,0.0,40.1,96,14.69,,,0.00,VWS V13.01,2013-06-23 10:35:00,
2013-06-23 06:40:00,69.1,67.8,30.22,WNW,285,3.4,40.1,96,14.69,,,0.00,VWS V13.01,2013-06-23 10:40:00,
2013-06-23 06:45:00,70.1,68.6,30.22,West,259,1.4,40.1,95,14.69,,,0.00,VWS V13.01,2013-06-23 10:45:00,
2013-06-23 06:50:00,70.8,68.9,30.23,NW,311,1.6,40.1,94,14.69,,,0.00,VWS V13.01,2013-06-23 10:50:00,
2013-06-23 06:55:00,71.5,69.2,30.23,WNW,288,2.7,40.1,93,14.69,,,0.00,VWS V13.01,2013-06-23 10:55:00,
2013-06-23 07:00:00,71.8,69.3,30.23,WNW,285,2.7,40.1,92,14.69,,,0.00,VWS V13.01,2013-06-23 11:00:00,
2013-06-23 07:05:00,72.1,69.6,30.23,West,269,3.2,40.1,92,14.69,,,0.00,VWS V13.01,2013-06-23 11:05:00,
2013-06-23 07:10:00,72.5,69.9,30.23,West,267,2.7,40.1,91,14.69,,,0.00,VWS V13.01,2013-06-23 11:10:00,
2013-06-23 07:15:00,72.5,69.9,30.23,WNW,285,3.2,40.1,92,14.69,,,0.00,VWS V13.01,2013-06-23 11:15:00,
2013-06-23 07:20:00,72.7,70.1,30.23,WNW,284,5.3,40.1,91,14.69,,,0.00,VWS V13.01,2013-06-23 11:20:00,
2013-06-23 07:25:00,72.9,70.2,30.24,WNW,301,3.5,40.1,91,14.69,,,0.00,VWS V13.01,2013-06-23 11:25:00,
2013-06-23 07:30:00,73.1,70.5,30.24,WNW,290,3.5,40.1,92,14.69,,,0.00,VWS V13.01,2013-06-23 11:30:00,
2013-06-23 07:35:00,73.5,70.8,30.24,West,259,1.9,40.1,91,14.69,,,0.00,VWS V13.01,2013-06-23 11:35:00,
2013-06-23 07:40:00,74.1,71.3,30.24,West,276,4.1,40.1,91,14.69,,,0.00,VWS V13.01,2013-06-23 11:40:00,
2013-06-23 07:45:00,74.3,71.2,30.24,WNW,295,3.7,40.1,90,14.69,,,0.00,VWS V13.01,2013-06-23 11:45:00,
2013-06-23 07:50:00,75.3,72.1,30.24,West,278,2.7,40.1,90,14.69,,,0.00,VWS V13.01,2013-06-23 11:50:00,
2013-06-23 07:55:00,75.8,72.4,30.24,West,276,2.9,40.1,89,14.69,,,0.00,VWS V13.01,2013-06-23 11:55:00,
2013-06-23 08:00:00,76.1,72.7,30.24,WNW,290,6.8,40.1,89,14.69,,,0.00,VWS V13.01,2013-06-23 12:00:00,
2013-06-23 08:05:00,76.2,73.0,30.24,West,280,3.4,40.1,90,14.69,,,0.00,VWS V13.01,2013-06-23 12:05:00,
2013-06-23 08:10:00,76.7,73.3,30.24,West,262,0.0,40.1,89,14.69,,,0.00,VWS V13.01,2013-06-23 12:10:00,
2013-06-23 08:15:00,76.9,73.6,30.24,NW,318,4.3,40.1,90,14.69,,,0.00,VWS V13.01,2013-06-23 12:15:00,
2013-06-23 08:20:00,77.8,74.2,30.24,NW,309,4.1,40.1,89,14.69,,,0.00,VWS V13.01,2013-06-23 12:20:00,
2013-06-23 08:25:00,78.3,74.5,30.24,WNW,298,2.1,40.1,88,14.69,,,0.00,VWS V13.01,2013-06-23 12:25:00,
2013-06-23 08:30:00,78.5,74.7,30.24,WNW,294,4.5,40.1,88,14.69,,,0.00,VWS V13.01,2013-06-23 12:30:00,
2013-06-23 08:35:00,79.2,75.0,30.24,WNW,284,3.9,40.1,87,14.69,,,0.00,VWS V13.01,2013-06-23 12:35:00,
2013-06-23 08:40:00,79.1,73.6,30.24,NW,312,2.7,40.1,83,14.69,,,0.00,VWS V13.01,2013-06-23 12:40:00,
2013-06-23 08:45:00,79.5,73.8,30.23,WNW,292,3.5,40.1,83,14.69,,,0.00,VWS V13.01,2013-06-23 12:45:00,
2013-06-23 08:50:00,80.1,74.7,30.23,West,269,4.5,40.1,84,14.69,,,0.00,VWS V13.01,2013-06-23 12:50:00,
2013-06-23 08:55:00,80.5,75.0,30.23,WNW,287,4.7,40.1,83,14.69,,,0.00,VWS V13.01,2013-06-23 12:55:00,
2013-06-23 10:00:00,83.6,75.8,30.23,WNW,295,5.5,40.1,77,14.69,,,0.00,VWS V13.01,2013-06-23 14:00:00,
2013-06-23 10:05:00,84.0,75.8,30.23,West,271,3.0,40.1,76,14.69,,,0.00,VWS V13.01,2013-06-23 14:05:00,
2013-06-23 10:10:00,84.7,76.4,30.22,WNW,298,4.1,40.1,76,14.69,,,0.00,VWS V13.01,2013-06-23 14:10:00,
2013-06-23 10:15:00,85.2,76.7,30.22,SW,215,2.8,40.1,76,14.69,,,0.00,VWS V13.01,2013-06-23 14:15:00,
2013-06-23 10:20:00,85.3,76.8,30.22,West,276,5.3,40.1,76,14.69,,,0.00,VWS V13.01,2013-06-23 14:20:00,
2013-06-23 10:25:00,84.8,76.5,30.22,West,277,7.9,40.1,76,14.69,,,0.00,VWS V13.01,2013-06-23 14:25:00,
2013-06-23 10:30:00,84.7,76.3,30.22,NW,309,5.3,40.1,76,14.69,,,0.00,VWS V13.01,2013-06-23 14:30:00,
2013-06-23 10:35:00,84.6,76.2,30.22,NNW,335,5.1,40.1,76,14.69,,,0.00,VWS V13.01,2013-06-23 14:35:00,
2013-06-23 10:40:00,85.0,76.4,30.21,WNW,292,4.7,40.1,76,14.69,,,0.00,VWS V13.01,2013-06-23 14:40:00,
2013-06-23 10:45:00,85.1,76.4,30.21,NNW,335,5.3,40.1,75,14.69,,,0.00,VWS V13.01,2013-06-23 14:45:00,
2013-06-23 10:50:00,85.5,76.8,30.21,WNW,284,1.8,40.1,75,14.69,,,0.00,VWS V13.01,2013-06-23 14:50:00,
2013-06-23 10:55:00,85.6,76.7,30.21,WNW,301,5.2,40.1,75,14.69,,,0.00,VWS V13.01,2013-06-23 14:55:00,
2013-06-23 11:01:00,86.3,77.0,30.21,SSW,208,0.0,40.1,74,14.69,,,0.00,VWS V13.01,2013-06-23 15:01:00,
2013-06-23 11:06:00,86.3,76.8,30.21,West,278,5.0,40.1,73,14.69,,,0.00,VWS V13.01,2013-06-23 15:06:00,
2013-06-23 12:07:00,84.9,77.0,30.20,North,4,0.9,40.1,77,14.69,,,0.00,VWS V13.01,2013-06-23 16:07:00,
2013-06-23 12:12:00,84.8,77.0,30.20,WSW,242,0.7,40.1,78,14.69,,,0.00,VWS V13.01,2013-06-23 16:12:00,
2013-06-23 12:17:00,84.5,77.1,30.20,NE,51,1.3,40.1,79,14.69,,,0.00,VWS V13.01,2013-06-23 16:17:00,
2013-06-23 12:22:00,84.3,77.5,30.20,WNW,284,3.4,40.1,80,14.69,,,0.00,VWS V13.01,2013-06-23 16:22:00,
2013-06-23 12:27:00,84.4,77.5,30.20,SE,134,3.7,40.1,80,14.69,,,0.00,VWS V13.01,2013-06-23 16:27:00,
2013-06-23 12:32:00,84.3,77.5,30.20,SE,146,6.3,40.1,80,14.69,,,0.00,VWS V13.01,2013-06-23 16:32:00,
2013-06-23 12:37:00,83.7,76.8,30.20,SW,235,1.6,40.1,80,14.69,,,0.00,VWS V13.01,2013-06-23 16:37:00,
2013-06-23 12:42:00,83.4,76.8,30.20,West,274,4.8,40.1,81,14.69,,,0.00,VWS V13.01,2013-06-23 16:42:00,
2013-06-23 12:47:00,83.4,77.3,30.20,West,269,3.7,40.1,82,14.69,,,0.00,VWS V13.01,2013-06-23 16:47:00,
2013-06-23 12:52:00,83.2,76.9,30.19,WSW,250,2.5,40.1,81,14.69,,,0.00,VWS V13.01,2013-06-23 16:52:00,
2013-06-23 12:57:00,83.2,77.1,30.19,SW,232,7.5,40.1,82,14.69,,,0.00,VWS V13.01,2013-06-23 16:57:00,
2013-06-23 13:02:00,83.5,77.3,30.19,SW,218,5.9,40.1,82,14.69,,,0.00,VWS V13.01,2013-06-23 17:02:00,
2013-06-23 13:07:00,83.5,77.2,30.19,WSW,238,1.8,40.1,81,14.69,,,0.00,VWS V13.01,2013-06-23 17:07:00,
2013-06-23 13:12:00,83.7,77.4,30.18,West,262,7.9,40.1,81,14.69,,,0.00,VWS V13.01,2013-06-23 17:12:00,
2013-06-23 13:17:00,83.8,77.3,30.18,NE,45,0.0,40.1,81,14.69,,,0.00,VWS V13.01,2013-06-23 17:17:00,
2013-06-23 13:22:00,84.1,77.5,30.18,SW,228,5.8,40.1,81,14.69,,,0.00,VWS V13.01,2013-06-23 17:22:00,
2013-06-23 13:27:00,83.9,77.6,30.18,SSW,207,0.3,40.1,82,14.69,,,0.00,VWS V13.01,2013-06-23 17:27:00,
2013-06-23 13:32:00,83.4,77.2,30.18,NNE,21,2.1,40.1,82,14.69,,,0.00,VWS V13.01,2013-06-23 17:32:00,
2013-06-23 13:37:00,83.4,77.3,30.18,SSW,200,3.7,40.1,82,14.69,,,0.00,VWS V13.01,2013-06-23 17:37:00,
2013-06-23 13:42:00,83.4,77.1,30.18,NE,39,0.4,40.1,81,14.69,,,0.00,VWS V13.01,2013-06-23 17:42:00,
2013-06-23 13:47:00,83.3,77.4,30.18,SW,232,4.7,40.1,83,14.69,,,0.00,VWS V13.01,2013-06-23 17:47:00,
2013-06-23 13:52:00,83.3,77.9,30.18,SE,143,2.9,40.1,84,14.69,,,0.00,VWS V13.01,2013-06-23 17:52:00,
2013-06-23 13:57:00,83.2,77.8,30.18,West,263,0.8,40.1,84,14.69,,,0.00,VWS V13.01,2013-06-23 17:57:00,
2013-06-23 14:02:00,83.4,78.1,30.18,WSW,240,1.9,40.1,84,14.69,,,0.00,VWS V13.01,2013-06-23 18:02:00,
2013-06-23 14:07:00,83.1,77.9,30.18,SW,233,6.1,40.1,84,14.69,,,0.00,VWS V13.01,2013-06-23 18:07:00,
2013-06-23 14:12:00,82.7,78.0,30.18,NNW,329,3.5,40.1,86,14.69,,,0.00,VWS V13.01,2013-06-23 18:12:00,
2013-06-23 14:17:00,82.4,77.9,30.17,SSW,205,1.0,40.1,86,14.69,,,0.00,VWS V13.01,2013-06-23 18:17:00,
2013-06-23 14:22:00,82.7,78.1,30.18,WSW,239,3.4,40.1,86,14.69,,,0.00,VWS V13.01,2013-06-23 18:22:00,
2013-06-23 14:27:00,82.5,77.9,30.17,SSW,200,2.2,40.1,86,14.69,,,0.00,VWS V13.01,2013-06-23 18:27:00,
2013-06-23 14:32:00,81.8,77.5,30.17,WSW,243,3.1,40.1,87,14.69,,,0.00,VWS V13.01,2013-06-23 18:32:00,
2013-06-23 14:37:00,81.6,77.6,30.17,SSW,205,0.7,40.1,88,14.69,,,0.00,VWS V13.01,2013-06-23 18:37:00,
2013-06-23 14:42:00,81.9,77.8,30.17,SSW,210,3.7,40.1,87,14.69,,,0.00,VWS V13.01,2013-06-23 18:42:00,
2013-06-23 14:47:00,81.4,77.3,30.17,SW,233,3.4,40.1,87,14.69,,,0.00,VWS V13.01,2013-06-23 18:47:00,
2013-06-23 14:52:00,81.4,77.6,30.17,South,181,4.0,40.1,88,14.69,,,0.00,VWS V13.01,2013-06-23 18:52:00,
2013-06-23 14:57:00,81.4,77.6,30.16,NW,308,1.6,40.1,88,14.69,,,0.00,VWS V13.01,2013-06-23 18:57:00,
2013-06-23 15:02:00,81.2,77.5,30.16,SW,225,2.4,40.1,89,14.69,,,0.00,VWS V13.01,2013-06-23 19:02:00,
2013-06-23 15:07:00,80.3,76.9,30.16,West,271,3.0,40.1,90,14.69,,,0.00,VWS V13.01,2013-06-23 19:07:00,
2013-06-23 15:12:00,80.5,77.3,30.16,West,262,1.6,40.1,90,14.69,,,0.00,VWS V13.01,2013-06-23 19:12:00,
2013-06-23 15:17:00,80.4,77.4,30.16,East,101,0.0,40.1,91,14.69,,,0.00,VWS V13.01,2013-06-23 19:17:00,
2013-06-23 15:22:00,80.4,77.5,30.16,SW,214,0.0,40.1,91,14.69,,,0.00,VWS V13.01,2013-06-23 19:22:00,
2013-06-23 15:27:00,80.4,77.6,30.16,NW,308,2.2,40.1,91,14.69,,,0.00,VWS V13.01,2013-06-23 19:27:00,
2013-06-23 15:32:00,80.5,77.9,30.16,NW,304,4.5,40.1,92,14.69,,,0.00,VWS V13.01,2013-06-23 19:32:00,
2013-06-23 15:37:00,80.4,78.5,30.15,West,259,0.0,40.1,94,14.69,,,0.00,VWS V13.01,2013-06-23 19:37:00,
2013-06-23 15:42:00,80.3,78.8,30.15,SW,235,0.0,40.1,95,14.69,,,0.00,VWS V13.01,2013-06-23 19:42:00,
2013-06-23 15:47:00,80.2,78.9,30.15,WSW,249,2.7,40.1,96,14.69,,,0.00,VWS V13.01,2013-06-23 19:47:00,
2013-06-23 15:52:00,79.9,78.8,30.15,SSW,201,0.0,40.1,96,14.69,,,0.00,VWS V13.01,2013-06-23 19:52:00,
2013-06-23 15:57:00,79.5,78.6,30.16,SE,146,0.0,40.1,97,14.69,,,0.00,VWS V13.01,2013-06-23 19:57:00,
2013-06-23 16:02:00,79.1,78.3,30.15,WSW,256,0.0,40.1,97,14.69,,,0.00,VWS V13.01,2013-06-23 20:02:00,
2013-06-23 16:07:00,78.9,78.1,30.15,SW,236,0.0,40.1,98,14.69,,,0.00,VWS V13.01,2013-06-23 20:07:00,
2013-06-23 16:12:00,78.9,78.1,30.15,ESE,115,1.4,40.1,97,14.69,,,0.00,VWS V13.01,2013-06-23 20:12:00,
2013-06-23 16:17:00,78.4,77.4,30.15,SE,139,4.7,40.1,97,14.69,,,0.00,VWS V13.01,2013-06-23 20:17:00,
2013-06-23 16:22:00,78.2,77.2,30.15,South,186,1.2,40.1,97,14.69,,,0.00,VWS V13.01,2013-06-23 20:22:00,
2013-06-23 16:27:00,78.2,77.2,30.14,WSW,250,0.0,40.1,97,14.69,,,0.00,VWS V13.01,2013-06-23 20:27:00,
2013-06-23 16:32:00,78.8,77.7,30.14,South,180,2.6,40.1,96,14.69,,,0.00,VWS V13.01,2013-06-23 20:32:00,
2013-06-23 16:37:00,78.7,77.5,30.14,SW,218,0.0,40.1,96,14.69,,,0.00,VWS V13.01,2013-06-23 20:37:00,
2013-06-23 16:42:00,79.1,77.7,30.14,South,174,2.4,40.1,96,14.69,,,0.00,VWS V13.01,2013-06-23 20:42:00,
2013-06-23 16:47:00,79.1,77.7,30.13,West,263,0.0,40.1,96,14.69,,,0.00,VWS V13.01,2013-06-23 20:47:00,
2013-06-23 16:52:00,79.2,77.8,30.13,SE,135,3.0,40.1,95,14.69,,,0.00,VWS V13.01,2013-06-23 20:52:00,
2013-06-23 16:57:00,80.0,78.4,30.13,SSE,148,1.6,40.1,95,14.69,,,0.00,VWS V13.01,2013-06-23 20:57:00,
2013-06-23 17:02:00,80.2,78.2,30.13,South,177,2.4,40.1,94,14.69,,,0.00,VWS V13.01,2013-06-23 21:02:00,
2013-06-23 17:07:00,80.4,78.1,30.13,WNW,298,0.0,40.1,93,14.69,,,0.00,VWS V13.01,2013-06-23 21:07:00,
2013-06-23 17:12:00,80.6,78.2,30.13,West,263,3.7,40.1,92,14.69,,,0.00,VWS V13.01,2013-06-23 21:12:00,
2013-06-23 17:17:00,80.4,78.2,30.13,West,278,5.3,40.1,93,14.69,,,0.00,VWS V13.01,2013-06-23 21:17:00,
2013-06-23 17:22:00,80.5,78.2,30.12,SE,132,0.0,40.1,93,14.69,,,0.00,VWS V13.01,2013-06-23 21:22:00,
2013-06-23 17:27:00,80.5,78.2,30.12,East,98,1.3,40.1,93,14.69,,,0.00,VWS V13.01,2013-06-23 21:27:00,
2013-06-23 17:32:00,80.4,77.9,30.13,South,188,3.5,40.1,92,14.69,,,0.00,VWS V13.01,2013-06-23 21:32:00,
2013-06-23 17:37:00,80.4,78.1,30.13,West,278,1.0,40.1,93,14.69,,,0.00,VWS V13.01,2013-06-23 21:37:00,
2013-06-23 17:42:00,79.8,77.7,30.13,SE,125,1.2,40.1,93,14.69,,,0.00,VWS V13.01,2013-06-23 21:42:00,
2013-06-23 17:47:00,79.9,77.9,30.12,SW,224,4.1,40.1,94,14.69,,,0.00,VWS V13.01,2013-06-23 21:47:00,
2013-06-23 17:52:00,79.8,77.9,30.12,NNW,340,0.3,40.1,94,14.69,,,0.00,VWS V13.01,2013-06-23 21:52:00,
2013-06-23 17:56:00,79.9,78.0,30.12,SSE,149,0.0,40.1,94,14.69,,,0.00,VWS V13.01,2013-06-23 21:56:00,
2013-06-23 18:01:00,79.9,78.0,30.12,West,270,0.0,40.1,94,14.69,,,0.00,VWS V13.01,2013-06-23 22:01:00,
2013-06-23 18:06:00,80.0,78.0,30.12,WSW,252,1.7,40.1,94,14.69,,,0.00,VWS V13.01,2013-06-23 22:06:00,
2013-06-23 18:11:00,79.7,77.7,30.12,East,83,0.9,40.1,94,14.69,,,0.00,VWS V13.01,2013-06-23 22:11:00,
2013-06-23 18:16:00,79.3,77.5,30.12,SE,139,2.6,40.1,94,14.69,,,0.00,VWS V13.01,2013-06-23 22:16:00,
2013-06-23 18:21:00,79.0,77.4,30.12,South,191,3.8,40.1,95,14.69,,,0.00,VWS V13.01,2013-06-23 22:21:00,
2013-06-23 18:26:00,78.7,77.2,30.12,WSW,242,0.9,40.1,95,14.69,,,0.00,VWS V13.01,2013-06-23 22:26:00,
2013-06-23 18:31:00,78.2,76.8,30.12,SSE,163,0.0,40.1,95,14.69,,,0.00,VWS V13.01,2013-06-23 22:31:00,
2013-06-23 18:36:00,77.9,76.6,30.12,SSW,210,7.8,40.1,96,14.69,,,0.00,VWS V13.01,2013-06-23 22:36:00,
2013-06-23 18:41:00,77.8,76.7,30.12,WNW,285,1.1,40.1,96,14.69,,,0.00,VWS V13.01,2013-06-23 22:41:00,
2013-06-23 18:46:00,77.2,76.1,30.13,WSW,248,1.1,40.1,96,14.69,,,0.00,VWS V13.01,2013-06-23 22:46:00,
2013-06-23 18:51:00,77.0,76.0,30.12,South,169,2.4,40.1,97,14.69,,,0.00,VWS V13.01,2013-06-23 22:51:00,
2013-06-23 18:56:00,77.0,76.1,30.12,WSW,250,1.9,40.1,97,14.69,,,0.00,VWS V13.01,2013-06-23 22:56:00,
2013-06-23 19:01:00,76.5,75.7,30.12,SSW,208,8.6,40.1,97,14.69,,,0.00,VWS V13.01,2013-06-23 23:01:00,
2013-06-23 19:06:00,76.5,75.7,30.12,SW,233,0.0,40.1,97,14.69,,,0.00,VWS V13.01,2013-06-23 23:06:00,
2013-06-23 19:11:00,76.5,75.7,30.12,South,174,1.2,40.1,98,14.69,,,0.00,VWS V13.01,2013-06-23 23:11:00,
2013-06-23 19:16:00,76.3,75.6,30.12,WSW,248,3.4,40.1,98,14.69,,,0.00,VWS V13.01,2013-06-23 23:16:00,
2013-06-23 19:21:00,76.2,75.5,30.12,West,271,1.3,40.1,98,14.69,,,0.00,VWS V13.01,2013-06-23 23:21:00,
2013-06-23 19:26:00,76.2,75.5,30.12,SW,214,2.3,40.1,98,14.69,,,0.00,VWS V13.01,2013-06-23 23:26:00,
2013-06-23 19:31:00,76.4,75.7,30.12,West,267,1.1,40.1,98,14.69,,,0.00,VWS V13.01,2013-06-23 23:31:00,
2013-06-23 19:36:00,76.4,75.8,30.11,SE,128,0.0,40.1,98,14.69,,,0.00,VWS V13.01,2013-06-23 23:36:00,
2013-06-23 19:41:00,76.3,75.7,30.12,NW,325,2.0,40.1,98,14.69,,,0.00,VWS V13.01,2013-06-23 23:41:00,
2013-06-23 19:46:00,76.7,76.1,30.11,West,270,0.0,40.1,98,14.69,,,0.00,VWS V13.01,2013-06-23 23:46:00,
2013-06-23 19:51:00,76.3,75.7,30.12,SW,219,3.3,40.1,98,14.69,,,0.00,VWS V13.01,2013-06-23 23:51:00,
2013-06-23 19:56:00,76.2,75.7,30.12,WSW,257,0.6,40.1,98,14.69,,,0.00,VWS V13.01,2013-06-23 23:56:00,
2013-06-23 20:01:00,76.2,75.7,30.11,West,270,2.7,40.1,98,14.69,,,0.00,VWS V13.01,2013-06-24 00:01:00,
2013-06-23 20:06:00,76.2,75.7,30.11,West,264,1.7,40.1,98,14.69,,,0.00,VWS V13.01,2013-06-24 00:06:00,
2013-06-23 20:11:00,76.2,75.7,30.11,NW,314,0.0,40.1,98,14.69,,,0.00,VWS V13.01,2013-06-24 00:11:00,
2013-06-23 20:16:00,76.4,75.9,30.11,West,264,1.9,40.1,98,14.69,,,0.00,VWS V13.01,2013-06-24 00:16:00,
2013-06-23 20:21:00,76.4,75.9,30.11,WNW,283,1.3,40.1,98,14.69,,,0.00,VWS V13.01,2013-06-24 00:21:00,
2013-06-23 20:26:00,76.4,75.9,30.12,West,262,0.0,40.1,98,14.69,,,0.00,VWS V13.01,2013-06-24 00:26:00,
2013-06-23 20:31:00,76.6,76.2,30.12,West,273,2.3,40.1,99,14.69,,,0.00,VWS V13.01,2013-06-24 00:31:00,
2013-06-23 20:36:00,76.6,76.4,30.12,West,271,1.0,40.1,99,14.69,,,0.00,VWS V13.01,2013-06-24 00:36:00,
2013-06-23 20:41:00,76.4,76.3,30.12,WNW,292,3.3,40.1,100,14.71,,,0.02,VWS V13.01,2013-06-24 00:41:00,
2013-06-23 20:46:00,76.8,76.8,30.12,WSW,257,0.0,40.1,100,14.72,,,0.03,VWS V13.01,2013-06-24 00:46:00,
2013-06-23 20:51:00,76.6,76.6,30.13,WSW,257,0.0,40.1,100,14.74,,,0.05,VWS V13.01,2013-06-24 00:51:00,
2013-06-23 20:56:00,76.4,76.4,30.13,West,259,0.9,40.1,100,14.74,,,0.05,VWS V13.01,2013-06-24 00:56:00,
2013-06-23 21:01:00,76.2,76.2,30.13,WSW,249,0.0,40.1,100,14.75,,,0.06,VWS V13.01,2013-06-24 01:01:00,
2013-06-23 21:06:00,76.3,76.3,30.12,WSW,249,0.0,40.1,100,14.75,,,0.06,VWS V13.01,2013-06-24 01:06:00,
2013-06-23 21:11:00,76.1,76.1,30.12,WSW,249,0.0,40.1,100,14.75,,,0.06,VWS V13.01,2013-06-24 01:11:00,
2013-06-23 21:16:00,76.2,76.2,30.12,WSW,249,0.0,40.1,100,14.75,,,0.06,VWS V13.01,2013-06-24 01:16:00,
2013-06-23 21:21:00,76.0,76.0,30.13,WSW,249,0.0,40.1,100,14.75,,,0.06,VWS V13.01,2013-06-24 01:21:00,
2013-06-23 21:26:00,75.8,75.8,30.13,WSW,249,0.0,40.1,100,14.75,,,0.06,VWS V13.01,2013-06-24 01:26:00,
2013-06-23 21:31:00,76.0,76.0,30.13,WSW,250,0.0,40.1,100,14.75,,,0.06,VWS V13.01,2013-06-24 01:31:00,
2013-06-23 21:36:00,76.0,76.0,30.13,WSW,250,3.0,40.1,100,14.76,,,0.07,VWS V13.01,2013-06-24 01:36:00,
2013-06-23 21:41:00,75.8,75.8,30.13,West,264,1.3,40.1,100,14.76,,,0.08,VWS V13.01,2013-06-24 01:41:00,
2013-06-23 21:46:00,75.7,75.7,30.13,WNW,285,0.0,40.1,100,14.77,,,0.08,VWS V13.01,2013-06-24 01:46:00,
2013-06-23 21:51:00,75.3,75.3,30.13,WNW,285,0.0,40.1,100,14.77,,,0.08,VWS V13.01,2013-06-24 01:51:00,
2013-06-23 21:56:00,75.6,75.6,30.13,WNW,287,2.3,40.1,100,14.77,,,0.08,VWS V13.01,2013-06-24 01:56:00,
2013-06-23 22:01:00,75.1,75.1,30.13,WNW,285,0.0,40.1,100,14.77,,,0.08,VWS V13.01,2013-06-24 02:01:00,
2013-06-23 22:06:00,75.2,75.2,30.13,WNW,285,0.0,40.1,100,14.77,,,0.08,VWS V13.01,2013-06-24 02:06:00,
2013-06-23 22:11:00,75.5,75.5,30.13,WNW,285,0.0,40.1,100,14.77,,,0.08,VWS V13.01,2013-06-24 02:11:00,
2013-06-23 22:16:00,75.4,75.4,30.13,WNW,285,0.0,40.1,100,14.77,,,0.08,VWS V13.01,2013-06-24 02:16:00,
2013-06-23 22:21:00,75.2,75.2,30.12,WNW,285,0.0,40.1,100,14.77,,,0.08,VWS V13.01,2013-06-24 02:21:00,
2013-06-23 22:26:00,75.2,75.2,30.13,West,278,0.0,40.1,100,14.77,,,0.08,VWS V13.01,2013-06-24 02:26:00,
2013-06-23 22:31:00,75.0,75.0,30.12,West,273,0.0,40.1,100,14.77,,,0.08,VWS V13.01,2013-06-24 02:31:00,
2013-06-23 22:36:00,74.8,74.8,30.13,WSW,252,0.0,40.1,100,14.77,,,0.08,VWS V13.01,2013-06-24 02:36:00,
2013-06-23 22:41:00,74.7,74.7,30.12,West,266,0.0,40.1,100,14.77,,,0.08,VWS V13.01,2013-06-24 02:41:00,
2013-06-23 22:46:00,74.6,74.6,30.13,WSW,242,0.0,40.1,100,14.77,,,0.08,VWS V13.01,2013-06-24 02:46:00,
2013-06-23 22:51:00,74.5,74.5,30.13,West,259,0.0,40.1,100,14.77,,,0.08,VWS V13.01,2013-06-24 02:51:00,
2013-06-23 22:56:00,74.6,74.6,30.13,West,260,0.0,40.1,100,14.77,,,0.08,VWS V13.01,2013-06-24 02:56:00,
2013-06-23 23:01:00,74.7,74.7,30.13,West,260,0.0,40.1,100,14.77,,,0.08,VWS V13.01,2013-06-24 03:01:00,
2013-06-23 23:06:00,74.5,74.5,30.13,West,260,0.0,40.1,100,14.77,,,0.08,VWS V13.01,2013-06-24 03:06:00,
2013-06-23 23:11:00,74.7,74.7,30.13,West,260,0.0,40.1,100,14.77,,,0.08,VWS V13.01,2013-06-24 03:11:00,
2013-06-23 23:16:00,74.6,74.6,30.13,West,260,0.0,40.1,100,14.77,,,0.08,VWS V13.01,2013-06-24 03:16:00,
2013-06-23 23:21:00,74.3,74.3,30.12,West,260,0.0,40.1,100,14.77,,,0.08,VWS V13.01,2013-06-24 03:21:00,
2013-06-23 23:26:00,74.2,74.2,30.13,West,260,0.0,40.1,100,14.77,,,0.08,VWS V13.01,2013-06-24 03:26:00,
2013-06-23 23:31:00,74.4,74.4,30.13,WNW,283,0.0,40.1,100,14.77,,,0.08,VWS V13.01,2013-06-24 03:31:00,
2013-06-23 23:36:00,74.3,74.3,30.13,WNW,283,0.0,40.1,100,14.77,,,0.08,VWS V13.01,2013-06-24 03:36:00,
2013-06-23 23:41:00,74.2,74.2,30.13,WNW,283,0.0,40.1,100,14.77,,,0.08,VWS V13.01,2013-06-24 03:41:00,
2013-06-23 23:46:00,74.2,74.2,30.13,WNW,283,0.0,40.1,100,14.77,,,0.08,VWS V13.01,2013-06-24 03:46:00,
2013-06-23 23:51:00,74.1,74.1,30.13,WNW,283,0.0,40.1,100,14.77,,,0.08,VWS V13.01,2013-06-24 03:51:00,
2013-06-23 23:56:00,74.3,74.3,30.12,WNW,283,0.0,40.1,100,14.77,,,0.08,VWS V13.01,2013-06-24 03:56:00,